createdAt,value
2023-03-29T00:02:00.628Z,4.61
2023-03-29T00:07:06.235Z,4.59
2023-03-29T00:12:11.871Z,4.64
2023-03-29T00:17:17.624Z,4.72
2023-03-29T00:22:23.592Z,4.73
2023-03-29T00:27:29.459Z,4.79
2023-03-29T00:32:35.853Z,4.83
2023-03-29T00:37:41.431Z,4.83
2023-03-29T00:42:47.487Z,4.91
2023-03-29T00:47:57.321Z,4.86
2023-03-29T00:53:18.362Z,4.99
2023-03-29T00:58:26.831Z,4.99
2023-03-29T01:03:35.428Z,4.96
2023-03-29T01:08:49.806Z,5.13
2023-03-29T01:14:02.837Z,5.13
2023-03-29T01:19:11.710Z,5.15
2023-03-29T01:24:36.556Z,5.07
2023-03-29T01:29:45.759Z,5.08
2023-03-29T01:35:00.232Z,4.97
2023-03-29T01:40:06.671Z,4.91
2023-03-29T01:45:27.026Z,4.83
2023-03-29T01:50:58.384Z,4.80
2023-03-29T01:56:25.983Z,4.87
2023-03-29T02:01:34.653Z,4.87
2023-03-29T02:06:41.461Z,4.86
2023-03-29T02:11:48.644Z,4.86
2023-03-29T02:16:54.503Z,4.86
2023-03-29T02:22:10.496Z,4.96
2023-03-29T02:27:17.778Z,4.96
2023-03-29T02:32:44.848Z,4.94
2023-03-29T02:37:54.667Z,4.94
2023-03-29T02:43:07.117Z,4.86
2023-03-29T02:48:16.801Z,4.99
2023-03-29T02:53:29.045Z,4.99
2023-03-29T02:58:36.241Z,4.80
2023-03-29T03:03:41.836Z,4.80
2023-03-29T03:08:47.429Z,4.96
2023-03-29T03:13:53.034Z,4.96
2023-03-29T03:18:59.182Z,5.06
2023-03-29T03:24:07.739Z,5.17
2023-03-29T03:29:14.190Z,5.33
2023-03-29T03:34:28.292Z,5.36
2023-03-29T03:39:35.375Z,5.44
2023-03-29T03:44:43.185Z,5.41
2023-03-29T03:50:02.444Z,5.36
2023-03-29T03:55:09.410Z,5.36
2023-03-29T04:00:19.866Z,5.32
2023-03-29T04:05:27.150Z,5.27
2023-03-29T04:10:34.425Z,5.32
2023-03-29T04:15:46.198Z,5.40
2023-03-29T04:20:52.556Z,5.28
2023-03-29T04:25:59.787Z,5.42
2023-03-29T04:31:17.033Z,5.41
2023-03-29T04:36:39.495Z,5.40
2023-03-29T04:41:47.421Z,5.53
2023-03-29T04:47:01.374Z,5.60
2023-03-29T04:52:22.480Z,5.60
2023-03-29T04:57:28.185Z,5.62
2023-03-29T05:02:45.700Z,5.70
2023-03-29T05:07:51.690Z,5.84
2023-03-29T05:12:58.833Z,5.77
2023-03-29T05:18:05.702Z,5.84
2023-03-29T05:23:12.696Z,5.78
2023-03-29T05:28:36.702Z,5.77
2023-03-29T05:33:42.577Z,5.78
2023-03-29T05:38:49.330Z,5.75
2023-03-29T05:43:56.523Z,5.75
2023-03-29T05:49:03.058Z,5.75
2023-03-29T05:54:13.567Z,5.85
2023-03-29T05:59:20.270Z,5.84
2023-03-29T06:04:26.537Z,5.97
2023-03-29T06:09:36.917Z,6.14
2023-03-29T06:14:42.984Z,6.25
2023-03-29T06:19:50.550Z,6.23
2023-03-29T06:24:56.758Z,6.18
2023-03-29T06:30:05.881Z,6.25
2023-03-29T06:35:12.921Z,6.27
2023-03-29T06:40:21.375Z,6.51
2023-03-29T06:45:29.849Z,6.41
2023-03-29T06:50:37.184Z,6.44
2023-03-29T06:55:47.443Z,6.60
2023-03-29T07:01:05.143Z,6.68
2023-03-29T07:06:20.705Z,6.64
2023-03-29T07:11:26.777Z,6.62
2023-03-29T07:16:35.766Z,6.71
2023-03-29T07:21:43.876Z,6.64
2023-03-29T07:27:03.461Z,6.73
2023-03-29T07:31:58.532Z,6.73
2023-03-29T07:37:07.272Z,6.95
2023-03-29T07:42:13.743Z,7.02
2023-03-29T07:47:19.751Z,7.69
2023-03-29T07:52:27.944Z,7.17
2023-03-29T07:57:34.886Z,7.19
2023-03-29T08:02:40.710Z,7.52
2023-03-29T08:07:47.535Z,7.52
2023-03-29T08:12:55.160Z,7.47
2023-03-29T08:18:02.473Z,7.95
2023-03-29T08:23:08.163Z,7.94
2023-03-29T08:28:15.472Z,8.28
2023-03-29T08:33:22.772Z,8.46
2023-03-29T08:38:32.957Z,8.43
2023-03-29T08:43:51.078Z,8.66
2023-03-29T08:49:17.725Z,8.84
2023-03-29T08:54:27.504Z,8.70
2023-03-29T08:59:52.989Z,8.84
2023-03-29T09:05:06.013Z,8.94
2023-03-29T09:10:21.328Z,9.10
2023-03-29T09:15:36.248Z,9.20
2023-03-29T09:21:02.338Z,9.58
2023-03-29T09:26:37.567Z,9.87
2023-03-29T09:31:46.233Z,9.90
2023-03-29T09:36:59.633Z,9.57
2023-03-29T09:42:11.884Z,10.53
2023-03-29T09:47:36.164Z,10.33
2023-03-29T09:52:43.832Z,10.10
2023-03-29T09:57:51.177Z,10.65
2023-03-29T10:03:00.495Z,10.69
2023-03-29T10:08:22.767Z,10.53
2023-03-29T10:13:32.312Z,10.37
2023-03-29T10:18:42.732Z,10.61
2023-03-29T10:23:49.895Z,10.73
2023-03-29T10:28:57.440Z,10.60
2023-03-29T10:34:06.361Z,11.12
2023-03-29T10:39:15.515Z,10.99
2023-03-29T10:44:32.749Z,10.86
2023-03-29T10:49:47.674Z,11.19
2023-03-29T10:54:57.235Z,11.12
2023-03-29T11:00:24.355Z,11.14
2023-03-29T11:05:50.099Z,11.17
2023-03-29T11:11:10.409Z,10.82
2023-03-29T11:16:21.750Z,11.08
2023-03-29T11:21:46.055Z,11.05
2023-03-29T11:27:14.041Z,11.23
2023-03-29T11:32:34.397Z,11.32
2023-03-29T11:37:48.796Z,11.76
2023-03-29T11:42:57.022Z,12.01
2023-03-29T11:48:06.037Z,11.80
2023-03-29T11:53:18.466Z,11.97
2023-03-29T11:58:32.697Z,12.18
2023-03-29T12:03:53.469Z,11.75
2023-03-29T12:09:05.471Z,11.77
2023-03-29T12:14:16.765Z,12.07
2023-03-29T12:19:26.087Z,12.43
2023-03-29T12:24:33.546Z,12.20
2023-03-29T12:29:53.868Z,12.55
2023-03-29T12:35:08.768Z,12.37
2023-03-29T12:40:47.112Z,12.45
2023-03-29T12:46:10.349Z,12.32
2023-03-29T12:51:18.675Z,12.30
2023-03-29T12:56:27.875Z,12.44
2023-03-29T13:01:37.146Z,12.83
2023-03-29T13:06:53.745Z,12.83
2023-03-29T13:12:02.889Z,13.21
2023-03-29T13:17:18.481Z,12.97
2023-03-29T13:22:39.527Z,12.87
2023-03-29T13:28:03.495Z,12.48
2023-03-29T13:33:26.983Z,12.56
2023-03-29T13:38:33.277Z,12.31
2023-03-29T13:43:44.744Z,12.63
2023-03-29T13:49:05.479Z,12.89
2023-03-29T13:54:35.636Z,12.74
2023-03-29T13:59:59.586Z,12.58
2023-03-29T14:05:08.793Z,12.56
2023-03-29T14:10:16.833Z,12.36
2023-03-29T14:15:31.102Z,12.26
2023-03-29T14:20:37.844Z,12.51
2023-03-29T14:25:43.422Z,12.73
2023-03-29T14:30:50.042Z,12.37
2023-03-29T14:35:58.110Z,12.29
2023-03-29T14:41:04.653Z,12.68
2023-03-29T14:46:11.050Z,12.55
2023-03-29T14:51:17.207Z,12.43
2023-03-29T14:56:24.821Z,12.17
2023-03-29T15:01:30.508Z,12.16
2023-03-29T15:06:41.879Z,11.95
2023-03-29T15:11:58.009Z,11.67
2023-03-29T15:17:07.062Z,11.63
2023-03-29T15:22:13.142Z,11.53
2023-03-29T15:27:21.160Z,11.38
2023-03-29T15:32:29.671Z,11.36
2023-03-29T15:37:36.815Z,11.24
2023-03-29T15:42:42.691Z,11.20
2023-03-29T15:47:48.803Z,11.18
2023-03-29T15:52:59.987Z,11.22
2023-03-29T15:58:03.664Z,11.39
2023-03-29T16:03:12.336Z,11.23
2023-03-29T16:08:17.933Z,11.22
2023-03-29T16:13:23.550Z,11.27
2023-03-29T16:18:29.181Z,11.24
2023-03-29T16:23:34.633Z,11.37
2023-03-29T16:28:41.096Z,11.33
2023-03-29T16:33:46.751Z,11.29
2023-03-29T16:38:52.260Z,11.52
2023-03-29T16:43:58.507Z,11.68
2023-03-29T16:49:05.747Z,12.41
2023-03-29T16:54:12.095Z,11.90
2023-03-29T16:59:17.527Z,11.83
2023-03-29T17:04:23.018Z,11.82
2023-03-29T17:09:29.819Z,11.72
2023-03-29T17:14:36.143Z,11.68
2023-03-29T17:19:41.781Z,11.48
2023-03-29T17:24:47.311Z,11.47
2023-03-29T17:29:53.217Z,11.36
2023-03-29T17:35:00.494Z,11.30
2023-03-29T17:40:12.815Z,11.37
2023-03-29T17:45:20.142Z,11.29
2023-03-29T17:50:26.297Z,11.23
2023-03-29T17:55:53.049Z,11.19
2023-03-29T18:00:58.681Z,11.15
2023-03-29T18:06:04.661Z,11.08
2023-03-29T18:11:13.227Z,11.05
2023-03-29T18:16:19.630Z,11.12
2023-03-29T18:21:26.486Z,11.05
2023-03-29T18:26:32.937Z,11.03
2023-03-29T18:31:38.699Z,11.09
2023-03-29T18:36:44.859Z,11.09
2023-03-29T18:41:50.663Z,11.24
2023-03-29T18:46:56.411Z,11.23
2023-03-29T18:52:02.912Z,11.22
2023-03-29T18:57:09.109Z,11.07
2023-03-29T19:02:15.711Z,11.08
2023-03-29T19:07:22.651Z,11.16
2023-03-29T19:12:28.811Z,11.05
2023-03-29T19:17:34.385Z,10.97
2023-03-29T19:22:40.570Z,11.04
2023-03-29T19:27:46.521Z,11.15
2023-03-29T19:32:52.308Z,11.11
2023-03-29T19:37:57.815Z,11.00
2023-03-29T19:43:03.630Z,10.95
2023-03-29T19:53:17.826Z,10.94
2023-03-29T19:58:23.413Z,10.99
2023-03-29T20:03:29.166Z,10.92
2023-03-29T20:08:36.915Z,10.87
2023-03-29T20:13:46.796Z,10.87
2023-03-29T20:18:54.096Z,10.81
2023-03-29T20:23:59.666Z,10.75
2023-03-29T20:29:06.374Z,10.78
2023-03-29T20:34:12.358Z,10.91
2023-03-29T20:39:18.984Z,10.85
2023-03-29T20:44:26.534Z,10.82
2023-03-29T20:49:39.536Z,10.85
2023-03-29T20:54:46.338Z,10.80
2023-03-29T20:59:54.049Z,10.81
2023-03-29T21:05:00.438Z,10.88
2023-03-29T21:10:07.078Z,10.88
2023-03-29T21:15:15.043Z,10.87
2023-03-29T21:20:21.467Z,10.83
2023-03-29T21:25:27.116Z,10.78
2023-03-29T21:30:32.928Z,10.56
2023-03-29T21:35:38.887Z,10.70
2023-03-29T21:40:44.869Z,10.65
2023-03-29T21:45:52.475Z,10.63
2023-03-29T21:50:58.297Z,10.48
2023-03-29T21:56:04.775Z,10.45
2023-03-29T22:01:10.702Z,10.36
2023-03-29T22:06:16.460Z,10.43
2023-03-29T22:11:23.416Z,10.39
2023-03-29T22:16:30.709Z,10.44
2023-03-29T22:21:37.779Z,10.44
2023-03-29T22:26:45.096Z,10.34
2023-03-29T22:31:50.979Z,10.40
2023-03-29T22:36:56.684Z,10.37
2023-03-29T22:42:02.257Z,10.40
2023-03-29T22:47:08.877Z,10.29
2023-03-29T22:52:14.595Z,10.27
2023-03-29T22:57:20.319Z,10.25
2023-03-29T23:02:26.064Z,10.32
2023-03-29T23:07:33.272Z,10.22
2023-03-29T23:12:39.293Z,10.17
2023-03-29T23:17:44.877Z,10.14
2023-03-29T23:22:50.362Z,10.14
2023-03-29T23:27:56.050Z,10.19
2023-03-29T23:33:02.621Z,10.17
2023-03-29T23:38:08.623Z,10.14
2023-03-29T23:43:14.818Z,10.12
2023-03-29T23:48:20.258Z,10.15
2023-03-29T23:53:28.941Z,10.12
2023-03-29T23:58:37.542Z,10.18
